Time;durP1;ratioP1;P1;durP2;ratioP2;P2;SDS_P1;SDS_P2;PMS_P1;PMS_P2;Temp;Humidity;BMP_temperature;BMP_pressure;BME280_temperature;BME280_humidity;BME280_pressure;Samples;Min_cycle;Max_cycle;Signal;HPM_P1;HPM_P2
2021/09/28 00:01:41;;;;;;;13.15;7.82;;;;;;;14.75;85.15;97344.25;5002694;28;20046;-60
2021/09/28 00:04:08;;;;;;;11.00;7.78;;;;;;;14.09;85.28;97241.50;5004163;28;20046;-61
2021/09/28 00:06:35;;;;;;;13.05;7.85;;;;;;;14.74;85.17;97349.06;5003638;28;20061;-63
2021/09/28 00:09:03;;;;;;;9.57;7.78;;;;;;;14.71;85.92;97335.09;5001969;28;20558;-61
2021/09/28 00:11:30;;;;;;;11.32;7.95;;;;;;;14.70;86.56;97336.28;5003840;28;20053;-63
2021/09/28 00:13:59;;;;;;;11.00;6.95;;;;;;;14.72;86.15;97331.91;5002526;28;20443;-61
2021/09/28 00:16:27;;;;;;;11.60;7.72;;;;;;;14.61;86.48;97311.53;5002133;28;20060;-60
2021/09/28 00:18:54;;;;;;;10.38;7.45;;;;;;;14.77;86.00;97325.16;5002139;28;20050;-61
2021/09/28 00:21:21;;;;;;;9.55;7.65;;;;;;;14.62;85.92;97298.41;4980073;28;20524;-60
2021/09/28 00:23:48;;;;;;;10.25;7.80;;;;;;;14.83;85.22;97320.78;5001909;28;20053;-62
2021/09/28 00:26:14;;;;;;;10.55;7.88;;;;;;;14.80;85.85;97319.59;5001689;28;20069;-61
2021/09/28 00:28:41;;;;;;;8.10;7.03;;;;;;;14.83;85.65;97318.00;5001923;28;20054;-62
2021/09/28 00:31:08;;;;;;;11.68;8.43;;;;;;;14.74;86.19;97315.59;5003248;28;20097;-59
2021/09/28 00:33:35;;;;;;;11.18;6.95;;;;;;;14.85;85.30;97326.78;5003225;28;20462;-61
2021/09/28 00:36:01;;;;;;;10.07;7.63;;;;;;;14.77;85.86;97325.16;5001920;28;20053;-63
2021/09/28 00:38:28;;;;;;;9.93;7.43;;;;;;;14.69;86.94;97323.50;5002678;28;20052;-61
2021/09/28 00:40:55;;;;;;;10.02;7.22;;;;;;;14.72;86.67;97323.53;5002534;28;20517;-61
2021/09/28 00:43:22;;;;;;;14.60;8.00;;;;;;;14.65;86.65;97322.72;5003121;28;20064;-62
2021/09/28 00:45:49;;;;;;;12.57;7.40;;;;;;;14.42;86.87;97291.50;5003144;28;20058;-60
2021/09/28 00:48:15;;;;;;;10.98;7.80;;;;;;;14.62;87.17;97317.91;5003090;28;20061;-62
2021/09/28 00:50:42;;;;;;;10.20;7.63;;;;;;;14.66;86.15;97330.69;5001578;28;20046;-61
2021/09/28 00:53:09;;;;;;;10.02;7.00;;;;;;;14.63;85.85;97330.66;5003301;28;20050;-60
2021/09/28 00:55:36;;;;;;;13.00;7.72;;;;;;;14.37;86.28;97311.41;5001531;28;20061;-62
2021/09/28 00:58:08;;;;;;;13.98;8.13;;;;;;;14.60;86.89;97317.50;5003120;28;20053;-62
2021/09/28 01:00:37;;;;;;;11.38;7.63;;;;;;;12.01;87.65;96908.91;5001040;28;20133;-61
2021/09/28 01:03:05;;;;;;;9.57;7.80;;;;;;;14.69;86.60;97324.31;5002828;28;20054;-61
2021/09/28 01:05:32;;;;;;;13.82;8.13;;;;;;;14.58;87.03;97317.88;5002619;28;20440;-61
2021/09/28 01:07:59;;;;;;;11.75;8.05;;;;;;;14.64;87.31;97324.69;5001150;28;20132;-60
2021/09/28 01:10:25;;;;;;;10.50;8.05;;;;;;;14.16;90.70;97325.94;5002628;28;20058;-61
2021/09/28 01:12:52;;;;;;;14.60;10.38;;;;;;;14.48;89.04;97331.78;5003247;28;20062;-61
2021/09/28 01:15:20;;;;;;;16.52;10.60;;;;;;;14.27;89.71;97309.31;5002728;28;20050;-61
2021/09/28 01:17:47;;;;;;;14.90;10.02;;;;;;;13.89;89.79;97246.56;5002370;28;20450;-64
2021/09/28 01:20:13;;;;;;;12.02;8.35;;;;;;;13.77;92.99;97310.09;5000879;28;20045;-60
2021/09/28 01:22:40;;;;;;;13.07;9.23;;;;;;;13.70;94.71;97317.19;5000815;28;20065;-61
2021/09/28 01:25:07;;;;;;;12.98;8.82;;;;;;;13.91;93.78;97304.66;5002056;28;20054;-60
2021/09/28 01:27:36;;;;;;;13.52;9.32;;;;;;;14.04;92.33;97315.09;5002515;28;20500;-61
2021/09/28 01:30:05;;;;;;;11.32;8.18;;;;;;;14.03;92.37;97302.38;5002619;28;20168;-61
2021/09/28 01:32:32;;;;;;;11.43;7.63;;;;;;;14.13;91.49;97300.84;5002544;28;20061;-61
2021/09/28 01:35:00;;;;;;;10.55;7.90;;;;;;;14.09;91.15;97283.28;5002405;28;20056;-60
2021/09/28 01:37:27;;;;;;;12.57;9.20;;;;;;;14.18;91.32;97298.47;5000756;28;20058;-61
2021/09/28 01:39:53;;;;;;;11.38;7.97;;;;;;;14.22;90.80;97287.38;5000780;28;20050;-61
2021/09/28 01:42:20;;;;;;;12.77;8.40;;;;;;;14.35;90.24;97294.25;5002080;28;20500;-63
2021/09/28 01:44:47;;;;;;;13.27;8.30;;;;;;;14.32;89.84;97281.88;5001857;28;20064;-61
2021/09/28 01:47:14;;;;;;;10.70;7.65;;;;;;;14.40;89.17;97293.91;5002047;28;20509;-61
2021/09/28 01:49:41;;;;;;;12.70;8.30;;;;;;;14.40;88.99;97311.41;5000706;28;20081;-63
2021/09/28 01:52:07;;;;;;;10.25;7.20;;;;;;;14.23;90.37;97286.97;5001884;28;20061;-61
2021/09/28 01:54:34;;;;;;;10.88;8.02;;;;;;;14.34;89.48;97289.84;5002251;28;20050;-61
2021/09/28 01:57:01;;;;;;;12.60;8.02;;;;;;;14.42;89.12;97285.91;5000286;28;20516;-64
2021/09/28 01:59:27;;;;;;;14.00;8.55;;;;;;;14.41;89.12;97290.72;5001809;28;20066;-61
2021/09/28 02:01:54;;;;;;;10.35;7.13;;;;;;;14.52;88.13;97287.97;5000097;28;20509;-64
2021/09/28 02:04:21;;;;;;;10.95;7.65;;;;;;;14.47;88.08;97285.56;5001963;28;20511;-60
2021/09/28 02:06:48;;;;;;;11.38;7.78;;;;;;;14.15;89.37;97254.69;5001978;28;20061;-61
2021/09/28 02:09:15;;;;;;;10.93;7.80;;;;;;;14.42;89.11;97286.72;5001979;28;20056;-62
2021/09/28 02:11:42;;;;;;;13.02;7.90;;;;;;;14.40;89.18;97277.94;5001807;28;20546;-61
2021/09/28 02:14:09;;;;;;;12.15;7.53;;;;;;;14.45;88.79;97279.56;5000388;28;20061;-62
2021/09/28 02:16:36;;;;;;;10.00;7.75;;;;;;;14.40;88.74;97288.31;5001642;28;20464;-60
2021/09/28 02:19:03;;;;;;;16.10;7.40;;;;;;;14.31;89.29;97279.47;5001908;28;20046;-61
2021/09/28 02:21:30;;;;;;;9.40;7.30;;;;;;;14.22;89.33;97263.09;5001476;28;20440;-63
2021/09/28 02:23:58;;;;;;;13.48;8.52;;;;;;;14.03;89.32;97223.56;5002115;28;20443;-61
2021/09/28 02:26:25;;;;;;;11.02;7.93;;;;;;;14.27;89.63;97273.09;5002097;28;20050;-61
2021/09/28 02:28:52;;;;;;;10.13;7.90;;;;;;;14.29;88.94;97279.09;5001510;28;20060;-64
2021/09/28 02:31:18;;;;;;;10.52;7.95;;;;;;;14.20;89.46;97281.38;5001100;28;20065;-61
2021/09/28 02:33:46;;;;;;;11.13;8.10;;;;;;;14.23;89.12;97266.66;5001536;28;20068;-61
2021/09/28 02:36:13;;;;;;;10.80;8.02;;;;;;;14.13;90.30;97284.13;5001339;28;20056;-60
2021/09/28 02:38:39;;;;;;;11.07;7.88;;;;;;;13.09;90.07;97113.94;5001926;28;20054;-61
2021/09/28 02:41:06;;;;;;;10.27;8.15;;;;;;;14.25;89.41;97269.91;5000261;28;20046;-61
2021/09/28 02:43:33;;;;;;;11.80;7.88;;;;;;;14.10;90.56;97270.97;5002037;28;20057;-61
2021/09/28 02:45:59;;;;;;;9.85;8.07;;;;;;;14.10;90.30;97273.75;5001574;28;20432;-63
2021/09/28 02:48:26;;;;;;;11.95;7.63;;;;;;;14.06;90.80;97272.91;5001379;28;20130;-62
2021/09/28 02:50:54;;;;;;;11.00;7.63;;;;;;;14.00;91.13;97266.13;5000885;28;20085;-62
2021/09/28 02:53:21;;;;;;;12.18;8.27;;;;;;;13.76;90.78;97236.09;5001290;28;20062;-60
2021/09/28 02:55:47;;;;;;;13.43;8.32;;;;;;;14.03;90.98;97265.34;4999488;28;20058;-61
2021/09/28 02:58:14;;;;;;;9.77;7.35;;;;;;;14.08;90.63;97267.78;5000971;28;20050;-62
2021/09/28 03:00:41;;;;;;;12.30;7.85;;;;;;;14.03;91.48;97273.69;4999371;28;20512;-62
2021/09/28 03:03:08;;;;;;;12.27;7.90;;;;;;;13.96;91.91;97268.88;5001095;28;20066;-62
2021/09/28 03:05:35;;;;;;;12.23;8.05;;;;;;;14.00;91.42;97271.69;5000782;28;20061;-62
2021/09/28 03:08:02;;;;;;;9.68;7.43;;;;;;;13.75;93.33;97273.50;5001123;28;20057;-61
2021/09/28 03:10:28;;;;;;;9.68;7.82;;;;;;;13.87;92.11;97267.59;5000125;28;20062;-61
2021/09/28 03:12:55;;;;;;;11.95;8.40;;;;;;;13.53;91.53;97211.28;5000725;28;20505;-63
2021/09/28 03:15:22;;;;;;;12.60;7.88;;;;;;;13.73;93.02;97264.72;5000841;28;20046;-60
2021/09/28 03:17:49;;;;;;;9.75;8.15;;;;;;;13.74;92.62;97266.34;5001009;28;20700;-61
2021/09/28 03:20:15;;;;;;;13.18;8.32;;;;;;;13.77;92.76;97268.34;5000712;28;20061;-63
2021/09/28 03:22:42;;;;;;;11.27;7.18;;;;;;;13.48;92.41;97223.53;4999465;28;20500;-61
2021/09/28 03:25:09;;;;;;;13.52;8.20;;;;;;;13.73;92.86;97264.72;5000585;28;20349;-61
2021/09/28 03:27:36;;;;;;;9.95;7.90;;;;;;;13.79;92.78;97263.16;4999294;28;20054;-61
2021/09/28 03:30:05;;;;;;;12.00;8.85;;;;;;;13.76;92.60;97266.72;5000706;28;20054;-61
2021/09/28 03:32:31;;;;;;;13.57;9.50;;;;;;;13.71;92.71;97270.66;4999018;28;20054;-62
2021/09/28 03:34:58;;;;;;;11.30;8.07;;;;;;;13.65;92.39;97250.75;5000957;28;20056;-60
2021/09/28 03:37:25;;;;;;;12.65;8.52;;;;;;;13.24;91.88;97199.09;5000520;28;20521;-61
2021/09/28 03:39:52;;;;;;;15.00;8.50;;;;;;;13.16;92.44;97247.50;5000793;28;20091;-62
2021/09/28 03:42:18;;;;;;;14.93;8.93;;;;;;;13.64;92.33;97282.53;4999077;28;20072;-60
2021/09/28 03:44:45;;;;;;;13.02;8.77;;;;;;;13.52;93.91;97271.69;5000664;28;20054;-61
2021/09/28 03:47:12;;;;;;;12.43;8.65;;;;;;;13.23;94.16;97236.44;5000127;28;20054;-61
2021/09/28 03:49:38;;;;;;;14.02;10.43;;;;;;;13.58;94.11;97264.59;4999996;28;20536;-62
2021/09/28 03:52:06;;;;;;;13.38;9.20;;;;;;;13.58;94.40;97270.16;5001303;28;20442;-60
2021/09/28 03:54:32;;;;;;;13.98;10.45;;;;;;;13.59;95.03;97268.97;4998946;28;20061;-61
2021/09/28 03:56:59;;;;;;;15.98;9.75;;;;;;;13.65;94.66;97273.03;5000127;28;20053;-62
2021/09/28 03:59:26;;;;;;;13.05;9.15;;;;;;;13.61;93.96;97252.69;5000596;28;20065;-62
2021/09/28 04:01:52;;;;;;;12.20;9.15;;;;;;;13.76;93.16;97269.50;4998520;28;20058;-61
2021/09/28 04:04:19;;;;;;;11.30;8.40;;;;;;;13.81;92.66;97271.94;5000219;28;20094;-62
2021/09/28 04:06:46;;;;;;;10.38;7.65;;;;;;;13.73;91.27;97275.84;4999888;28;20524;-61
2021/09/28 04:09:13;;;;;;;9.80;7.60;;;;;;;13.64;92.23;97279.75;5000745;28;20071;-62
2021/09/28 04:11:40;;;;;;;11.15;7.75;;;;;;;13.58;92.50;97277.69;5000250;28;20586;-61
2021/09/28 04:14:07;;;;;;;11.48;8.40;;;;;;;13.57;92.93;97276.91;5003516;28;20501;-64
2021/09/28 04:16:36;;;;;;;13.63;9.55;;;;;;;13.53;93.47;97284.44;5003402;28;20064;-61
2021/09/28 04:19:03;;;;;;;15.52;10.60;;;;;;;13.57;93.13;97282.50;5001990;28;20049;-61
2021/09/28 04:21:30;;;;;;;20.75;13.63;;;;;;;13.61;92.75;97285.28;5003462;28;20062;-61
2021/09/28 04:23:56;;;;;;;17.58;14.52;;;;;;;13.64;92.62;97292.88;5003452;28;20069;-62
2021/09/28 04:26:23;;;;;;;18.52;11.90;;;;;;;13.73;92.88;97292.56;5003788;28;20072;-61
2021/09/28 04:28:50;;;;;;;19.35;9.15;;;;;;;13.84;91.89;97299.00;5003608;28;20405;-61
2021/09/28 04:31:18;;;;;;;11.20;8.73;;;;;;;13.95;91.18;97302.69;5003322;28;20058;-61
2021/09/28 04:33:46;;;;;;;19.67;10.27;;;;;;;14.03;89.67;97301.56;5003456;28;20057;-63
2021/09/28 04:36:12;;;;;;;19.05;9.98;;;;;;;13.73;89.15;97248.00;5003200;28;20045;-61
2021/09/28 04:38:39;;;;;;;20.38;10.70;;;;;;;14.12;89.77;97299.22;5003471;28;20056;-61
2021/09/28 04:41:06;;;;;;;20.67;9.73;;;;;;;13.60;89.50;97251.09;5001685;28;20057;-60
2021/09/28 04:43:33;;;;;;;17.27;9.18;;;;;;;14.30;88.72;97308.56;5003839;28;20049;-61
2021/09/28 04:46:00;;;;;;;17.38;8.88;;;;;;;14.22;89.02;97304.09;5003073;28;20128;-62
2021/09/28 04:48:27;;;;;;;17.63;9.55;;;;;;;14.00;88.67;97252.19;5001241;28;20050;-61
2021/09/28 04:50:54;;;;;;;16.25;9.27;;;;;;;14.43;87.68;97301.47;5002792;28;20440;-62
2021/09/28 04:53:22;;;;;;;14.25;8.00;;;;;;;14.41;87.50;97295.47;5001565;28;20072;-62
2021/09/28 04:55:49;;;;;;;15.10;8.07;;;;;;;14.35;88.53;97308.19;5002381;28;20568;-63
2021/09/28 04:58:15;;;;;;;25.77;10.00;;;;;;;14.26;87.73;97266.72;5000363;28;20465;-62
2021/09/28 05:00:42;;;;;;;17.38;8.80;;;;;;;14.11;86.27;97208.50;5018062;28;20152;-62
2021/09/28 05:03:09;;;;;;;19.20;8.30;;;;;;;14.82;85.86;97305.25;5002995;28;20050;-62
2021/09/28 05:05:36;;;;;;;15.10;8.00;;;;;;;14.99;84.80;97307.31;5000427;28;20554;-62
2021/09/28 05:08:03;;;;;;;17.17;8.43;;;;;;;14.81;83.41;97231.16;5002670;28;20050;-64
2021/09/28 05:10:30;;;;;;;12.40;7.30;;;;;;;15.17;83.22;97311.00;5001985;28;20064;-63
2021/09/28 05:12:57;;;;;;;12.60;8.73;;;;;;;15.41;82.64;97301.94;5002264;28;20601;-62
2021/09/28 05:15:24;;;;;;;12.98;7.30;;;;;;;15.47;81.90;97308.72;5002588;28;20053;-62
2021/09/28 05:17:50;;;;;;;12.90;7.05;;;;;;;15.47;81.29;97275.22;5002444;28;20061;-64
2021/09/28 05:20:17;;;;;;;13.70;7.97;;;;;;;15.76;80.46;97303.97;5002544;28;20068;-62
2021/09/28 05:22:44;;;;;;;11.65;7.43;;;;;;;15.87;80.57;97299.97;5002226;28;20060;-61
2021/09/28 05:25:11;;;;;;;13.95;7.80;;;;;;;16.11;79.50;97299.19;5002100;28;20712;-61
2021/09/28 05:27:38;;;;;;;14.13;9.60;;;;;;;16.29;78.90;97299.16;5002075;28;20555;-62
2021/09/28 05:30:06;;;;;;;11.82;8.07;;;;;;;16.33;77.12;97264.41;5002062;28;20079;-61
2021/09/28 05:32:33;;;;;;;15.57;7.80;;;;;;;16.64;76.09;97305.50;5002307;28;20060;-61
2021/09/28 05:35:00;;;;;;;13.85;7.93;;;;;;;16.89;75.32;97310.22;5002216;28;20058;-61
2021/09/28 05:37:26;;;;;;;15.30;7.75;;;;;;;16.76;75.16;97278.28;5001957;28;20046;-61
2021/09/28 05:39:53;;;;;;;14.98;7.90;;;;;;;16.80;73.83;97256.72;5001214;28;20046;-60
2021/09/28 05:42:20;;;;;;;13.68;8.20;;;;;;;17.26;73.04;97313.28;5000373;28;20061;-62
2021/09/28 05:44:46;;;;;;;13.63;7.90;;;;;;;17.49;72.38;97306.00;5002364;28;20061;-60
2021/09/28 05:47:13;;;;;;;12.80;7.05;;;;;;;17.67;71.65;97311.50;5001840;28;20488;-61
2021/09/28 05:49:40;;;;;;;14.75;8.70;;;;;;;17.70;71.44;97310.66;5002062;28;20068;-61
2021/09/28 05:52:11;;;;;;;10.65;6.70;;;;;;;17.81;71.08;97320.59;5002133;28;20046;-62
2021/09/28 05:54:47;;;;;;;13.25;7.03;;;;;;;17.81;72.05;97322.59;5000680;28;20066;-60
2021/09/28 05:57:22;;;;;;;12.80;6.95;;;;;;;17.67;71.76;97306.66;5001159;28;20074;-60
2021/09/28 05:59:50;;;;;;;13.02;7.15;;;;;;;17.24;72.20;97238.09;5002468;28;20485;-61
2021/09/28 06:02:20;;;;;;;16.60;7.72;;;;;;;18.07;71.67;97319.19;4999913;28;20061;-64
2021/09/28 06:04:47;;;;;;;12.35;7.20;;;;;;;18.32;69.99;97347.81;4996564;28;20050;-61
2021/09/28 06:07:16;;;;;;;20.42;8.30;;;;;;;18.25;70.37;97291.81;4994349;28;20054;-63
2021/09/28 06:09:44;;;;;;;24.92;8.65;;;;;;;18.74;69.60;97322.22;5001817;28;20053;-60
2021/09/28 06:12:12;;;;;;;24.27;11.00;;;;;;;18.70;68.73;97295.41;5000820;28;20062;-61
2021/09/28 06:14:40;;;;;;;14.82;10.23;;;;;;;18.38;69.08;97276.09;5001454;28;20555;-61
2021/09/28 06:17:07;;;;;;;16.02;12.25;;;;;;;18.61;69.77;97332.38;4995274;28;20058;-62
2021/09/28 06:19:35;;;;;;;16.42;11.13;;;;;;;18.84;69.43;97332.53;4992171;28;20421;-61
2021/09/28 06:22:04;;;;;;;16.42;11.15;;;;;;;18.96;68.83;97326.38;4986366;28;20513;-63
2021/09/28 06:24:32;;;;;;;15.50;11.60;;;;;;;18.93;68.34;97293.53;4981517;28;20390;-61
2021/09/28 06:27:04;;;;;;;14.85;10.27;;;;;;;18.69;67.86;97249.69;4990246;28;20125;-63
2021/09/28 06:29:31;;;;;;;17.80;10.57;;;;;;;18.66;67.59;97205.63;4980095;28;20072;-62
2021/09/28 06:31:58;;;;;;;14.30;10.48;;;;;;;19.61;67.19;97324.38;4980162;28;20521;-63
2021/09/28 06:34:25;;;;;;;15.23;9.85;;;;;;;19.75;66.66;97327.00;4980824;28;20070;-64
2021/09/28 06:36:53;;;;;;;17.70;10.68;;;;;;;18.92;66.57;97213.31;5081552;28;20046;-66
2021/09/28 06:39:20;;;;;;;16.80;9.73;;;;;;;19.47;66.38;97272.78;4988315;28;20081;-64
2021/09/28 06:41:46;;;;;;;16.08;8.35;;;;;;;19.97;65.17;97305.78;4981032;28;20042;-65
2021/09/28 06:44:13;;;;;;;18.02;8.98;;;;;;;19.04;65.12;97156.63;4982703;28;20054;-68
2021/09/28 06:46:40;;;;;;;17.73;9.18;;;;;;;20.27;65.18;97343.09;4981270;28;20171;-66
2021/09/28 06:49:07;;;;;;;15.10;7.57;;;;;;;19.80;64.65;97216.88;4979736;28;20062;-64
2021/09/28 06:51:34;;;;;;;15.07;8.88;;;;;;;20.62;63.88;97347.34;4980734;28;20080;-64
2021/09/28 06:54:00;;;;;;;17.23;9.20;;;;;;;19.94;65.02;97272.88;4988739;28;20064;-62
2021/09/28 06:56:28;;;;;;;16.80;8.82;;;;;;;19.84;62.86;97212.00;4992855;28;20160;-63
2021/09/28 06:58:55;;;;;;;14.25;9.60;;;;;;;20.00;63.94;97254.28;5003237;28;20055;-63
2021/09/28 07:01:21;;;;;;;12.60;9.40;;;;;;;20.45;63.31;97297.78;4990251;28;20064;-61
2021/09/28 07:03:49;;;;;;;13.07;9.43;;;;;;;20.05;62.98;97211.63;4986931;28;20057;-62
2021/09/28 07:06:15;;;;;;;10.63;8.65;;;;;;;19.94;65.25;97334.75;4985697;28;20056;-62
2021/09/28 07:08:42;;;;;;;14.30;9.52;;;;;;;20.10;65.11;97327.28;4995748;28;20072;-67
2021/09/28 07:11:09;;;;;;;13.32;7.60;;;;;;;20.14;64.46;97283.03;4984834;28;20061;-65
2021/09/28 07:13:36;;;;;;;10.25;7.82;;;;;;;20.61;64.57;97328.88;4986910;28;20050;-66
2021/09/28 07:16:02;;;;;;;11.60;9.02;;;;;;;19.94;64.00;97206.19;4983298;28;20051;-67
2021/09/28 07:18:29;;;;;;;10.23;8.15;;;;;;;20.81;63.87;97309.97;4992993;28;20171;-67
2021/09/28 07:20:56;;;;;;;11.98;8.90;;;;;;;21.22;62.80;97327.31;4979840;28;20592;-69
2021/09/28 07:23:25;;;;;;;14.38;8.90;;;;;;;20.95;62.69;97298.44;4997978;28;20384;-65
2021/09/28 07:25:52;;;;;;;11.45;8.85;;;;;;;18.62;63.15;96927.09;5000500;28;20065;-67
2021/09/28 07:28:19;;;;;;;12.30;7.82;;;;;;;21.21;63.02;97322.91;4982699;28;20682;-63
2021/09/28 07:30:46;;;;;;;13.35;8.60;;;;;;;20.64;62.78;97226.66;4978730;28;20050;-62
2021/09/28 07:33:13;;;;;;;13.50;9.32;;;;;;;21.34;63.07;97329.47;4990301;28;20047;-63
2021/09/28 07:35:44;;;;;;;23.13;13.65;;;;;;;21.42;62.14;97299.91;4980766;28;21098;-61
2021/09/28 07:38:15;;;;;;;15.07;11.32;;;;;;;21.71;62.60;97368.56;4986096;28;20498;-65
2021/09/28 07:40:45;;;;;;;12.63;9.35;;;;;;;21.65;63.25;97328.00;5000084;28;20444;-62
2021/09/28 07:43:12;;;;;;;11.77;9.23;;;;;;;21.41;62.19;97269.31;5000100;28;20046;-63
2021/09/28 07:45:39;;;;;;;15.10;8.65;;;;;;;21.95;61.51;97326.94;4999414;28;20053;-63
2021/09/28 07:48:06;;;;;;;16.10;10.00;;;;;;;21.98;60.98;97338.16;4994030;28;20066;-64
2021/09/28 07:50:33;;;;;;;11.18;9.43;;;;;;;21.84;60.83;97338.50;4983781;28;20088;-62
2021/09/28 07:53:01;;;;;;;16.98;11.82;;;;;;;20.66;63.92;97246.72;4997828;28;20130;-65
2021/09/28 07:55:28;;;;;;;16.30;11.75;;;;;;;21.34;63.09;97337.13;5001497;28;20034;-63
2021/09/28 07:57:54;;;;;;;26.33;16.17;;;;;;;20.28;65.46;97298.88;5001834;28;20056;-63
2021/09/28 08:00:21;;;;;;;25.52;14.35;;;;;;;20.99;64.05;97338.63;4995252;28;20046;-69
2021/09/28 08:02:48;;;;;;;27.63;14.35;;;;;;;21.05;63.67;97314.38;5001144;28;20438;-66
2021/09/28 08:05:15;;;;;;;12.48;8.75;;;;;;;21.71;60.86;97329.06;5000521;28;20389;-64
2021/09/28 08:07:42;;;;;;;16.42;11.27;;;;;;;21.99;60.08;97322.81;4995105;28;20060;-61
2021/09/28 08:10:12;;;;;;;36.80;19.65;;;;;;;22.01;58.82;97303.44;4992883;28;20386;-63
2021/09/28 08:12:39;;;;;;;14.82;10.32;;;;;;;21.86;59.40;97293.69;4983833;28;20580;-62
2021/09/28 08:15:07;;;;;;;12.05;10.10;;;;;;;22.21;59.24;97312.59;4993040;28;20169;-62
2021/09/28 08:17:36;;;;;;;9.85;7.53;;;;;;;22.12;57.67;97295.50;4998698;28;20051;-63
2021/09/28 08:20:04;;;;;;;9.73;8.40;;;;;;;22.16;57.09;97270.78;5012478;28;20077;-64
2021/09/28 08:22:31;;;;;;;10.45;7.53;;;;;;;22.10;56.80;97244.34;4992098;28;20054;-62
2021/09/28 08:25:06;;;;;;;10.20;8.30;;;;;;;22.65;56.82;97299.03;4994306;28;20046;-65
2021/09/28 08:30:18;;;;;;;10.27;8.38;;;;;;;20.19;63.38;97217.03;5002524;28;20547;-63
2021/09/28 08:32:45;;;;;;;11.77;8.60;;;;;;;20.52;63.72;97303.25;5003190;28;20573;-62
2021/09/28 08:35:12;;;;;;;26.30;10.73;;;;;;;21.32;61.52;97289.66;5002492;28;20050;-63
2021/09/28 08:37:40;;;;;;;13.23;8.73;;;;;;;22.05;59.04;97304.13;5003014;28;20050;-64
2021/09/28 08:40:07;;;;;;;13.70;10.32;;;;;;;21.72;60.73;97302.44;5002306;28;20058;-63
2021/09/28 08:42:33;;;;;;;9.70;7.25;;;;;;;22.36;57.39;97302.56;5002501;28;20425;-64
2021/09/28 08:45:00;;;;;;;9.90;7.95;;;;;;;22.76;55.68;97293.88;5002734;28;20050;-65
2021/09/28 08:47:38;;;;;;;13.57;10.90;;;;;;;22.91;57.84;97289.44;5002290;28;20056;-63
2021/09/28 08:50:10;;;;;;;12.35;10.95;;;;;;;22.53;59.29;97291.25;5001663;28;20058;-64
2021/09/28 08:52:46;;;;;;;14.77;10.45;;;;;;;20.93;62.09;97182.59;5000003;28;20603;-63
2021/09/28 08:55:23;;;;;;;12.05;9.82;;;;;;;21.69;60.99;97257.41;5001368;28;20119;-63
2021/09/28 08:57:51;;;;;;;12.95;10.82;;;;;;;21.92;62.11;97289.13;5001103;28;20068;-64
2021/09/28 09:00:21;;;;;;;13.18;10.45;;;;;;;22.18;59.09;97285.25;4999911;28;20537;-64
2021/09/28 09:02:49;;;;;;;15.75;11.05;;;;;;;22.19;59.37;97286.84;5001542;28;20049;-64
2021/09/28 09:05:17;;;;;;;13.57;11.07;;;;;;;21.71;60.12;97250.13;4999868;28;20077;-63
2021/09/28 09:07:57;;;;;;;17.17;12.40;;;;;;;21.66;59.07;97171.66;4999924;28;20053;-64
2021/09/28 09:10:30;;;;;;;21.98;14.50;;;;;;;21.47;62.54;97285.28;5001851;28;20057;-63
2021/09/28 09:12:57;;;;;;;11.95;10.13;;;;;;;21.38;61.26;97287.91;5000104;28;20080;-63
2021/09/28 09:15:35;;;;;;;14.40;11.63;;;;;;;21.43;59.86;97171.84;5001085;28;20050;-64
2021/09/28 09:18:07;;;;;;;11.95;10.60;;;;;;;22.64;56.71;97283.31;5001775;28;20050;-62
2021/09/28 09:20:36;;;;;;;11.07;9.73;;;;;;;22.79;56.33;97278.88;4999585;28;20063;-65
2021/09/28 09:23:15;;;;;;;14.23;12.40;;;;;;;23.20;55.13;97281.75;4998192;28;20049;-64
2021/09/28 09:25:42;;;;;;;12.25;10.35;;;;;;;23.44;54.66;97285.91;4999360;28;20060;-64
2021/09/28 09:28:31;;;;;;;17.13;12.13;;;;;;;23.14;55.04;97249.63;5000377;28;20042;-63
2021/09/28 09:31:15;;;;;;;12.88;11.50;;;;;;;23.32;54.90;97283.84;4998924;28;20167;-64
2021/09/28 09:33:44;;;;;;;12.40;11.05;;;;;;;22.17;52.99;97012.75;4999713;28;20528;-63
2021/09/28 09:36:16;;;;;;;12.38;10.52;;;;;;;23.66;52.33;97272.72;4999151;28;20507;-63
2021/09/28 09:38:46;;;;;;;11.50;9.52;;;;;;;22.65;53.82;97206.63;5000568;28;20046;-63
2021/09/28 09:41:14;;;;;;;12.90;11.38;;;;;;;21.96;53.65;97019.00;4999317;28;20483;-63
2021/09/28 09:43:43;;;;;;;11.75;10.60;;;;;;;24.03;52.53;97271.19;5001111;28;20054;-64
2021/09/28 09:46:12;;;;;;;11.77;10.57;;;;;;;23.07;52.50;97199.75;4999005;28;20154;-62
2021/09/28 09:48:41;;;;;;;15.27;11.90;;;;;;;23.49;53.56;97248.59;4960857;28;1139263;-62
2021/09/28 09:51:15;;;;;;;12.23;10.52;;;;;;;23.68;53.34;97273.03;5000229;28;20139;-65
2021/09/28 09:53:58;;;;;;;11.48;9.90;;;;;;;22.92;55.00;97269.19;5001613;28;20545;-63
2021/09/28 09:56:48;;;;;;;11.68;10.43;;;;;;;22.67;56.52;97265.50;5000768;28;20600;-62
2021/09/28 09:59:17;;;;;;;17.02;13.02;;;;;;;23.49;54.35;97269.19;5002069;28;20064;-65
2021/09/28 10:01:45;;;;;;;11.80;10.40;;;;;;;23.60;52.96;97271.69;5000310;28;20080;-62
2021/09/28 10:04:14;;;;;;;13.98;12.48;;;;;;;23.78;52.68;97266.28;5001983;28;20058;-64
2021/09/28 10:06:41;;;;;;;11.18;9.90;;;;;;;23.44;52.53;97260.47;5001478;28;20049;-63
2021/09/28 10:09:29;;;;;;;11.77;9.52;;;;;;;20.95;54.46;96974.53;5001047;28;20056;-63
2021/09/28 10:11:57;;;;;;;11.98;10.70;;;;;;;22.67;55.04;97265.50;5001231;28;20062;-62
2021/09/28 10:14:27;;;;;;;12.80;11.40;;;;;;;22.67;55.30;97271.91;5001829;28;20049;-63
2021/09/28 10:16:56;;;;;;;19.70;11.43;;;;;;;23.29;53.16;97267.78;5001173;28;20057;-65
2021/09/28 10:19:29;;;;;;;11.55;10.35;;;;;;;23.37;52.70;97264.31;5001927;28;20058;-62
2021/09/28 10:21:57;;;;;;;16.10;13.27;;;;;;;21.87;54.49;97105.50;5001378;28;20072;-63
2021/09/28 10:24:28;;;;;;;12.00;10.75;;;;;;;22.23;55.67;97214.19;4999504;28;20515;-62
2021/09/28 10:27:00;;;;;;;11.98;9.75;;;;;;;22.48;55.83;97259.50;5001039;28;20060;-64
2021/09/28 10:29:38;;;;;;;14.63;10.38;;;;;;;22.91;54.73;97261.19;5000784;28;20145;-63
2021/09/28 10:32:28;;;;;;;13.98;10.80;;;;;;;22.60;55.99;97260.03;5000746;28;20394;-63
2021/09/28 10:35:08;;;;;;;14.25;12.82;;;;;;;22.86;54.62;97268.16;4999958;28;20061;-64
2021/09/28 10:37:49;;;;;;;14.65;10.45;;;;;;;22.90;53.03;97262.44;5001322;28;20053;-64
2021/09/28 10:40:19;;;;;;;12.18;9.90;;;;;;;22.82;53.74;97269.50;5000950;28;20050;-63
2021/09/28 10:43:23;;;;;;;9.63;8.63;;;;;;;22.70;53.58;97258.97;5001031;28;20046;-63
2021/09/28 10:45:50;;;;;;;;;;;;;;;23.03;52.37;97257.63;4999822;28;20696;-63
2021/09/28 10:48:29;;;;;;;11.82;10.48;;;;;;;22.78;53.09;97266.00;4999455;28;19936;-63
2021/09/28 10:51:13;;;;;;;14.07;9.63;;;;;;;22.02;54.81;97264.72;5000555;28;20060;-64
2021/09/28 10:53:45;;;;;;;15.73;10.38;;;;;;;22.40;55.67;97229.03;4999305;28;20431;-63
2021/09/28 10:56:15;;;;;;;13.30;11.43;;;;;;;22.85;53.71;97260.13;4999175;28;20061;-64
2021/09/28 10:58:56;;;;;;;11.02;9.88;;;;;;;22.36;54.93;97257.41;5000820;28;20436;-67
2021/09/28 11:01:27;;;;;;;11.60;9.63;;;;;;;22.30;55.21;97261.19;4999806;28;20050;-61
2021/09/28 11:03:58;;;;;;;9.90;9.00;;;;;;;22.42;54.62;97255.63;5000588;28;20100;-65
2021/09/28 11:06:40;;;;;;;10.95;9.55;;;;;;;22.53;54.71;97251.72;4998787;28;20126;-61
2021/09/28 11:09:08;;;;;;;12.10;9.75;;;;;;;22.03;53.59;97142.16;4989452;28;20057;-62
2021/09/28 11:11:35;;;;;;;14.70;9.20;;;;;;;23.04;52.06;97172.38;4986747;28;20047;-64
2021/09/28 11:14:04;;;;;;;12.45;9.95;;;;;;;23.56;51.02;97254.03;4986800;28;20046;-62
2021/09/28 11:16:50;;;;;;;10.68;9.57;;;;;;;23.27;51.01;97179.78;4986828;28;20042;-64
2021/09/28 11:19:17;;;;;;;10.73;9.02;;;;;;;21.89;50.20;96906.38;4993794;28;20058;-63
2021/09/28 11:21:47;;;;;;;10.35;9.00;;;;;;;23.97;49.32;97228.50;4986298;28;20137;-60
2021/09/28 11:24:21;;;;;;;8.93;7.90;;;;;;;24.40;48.81;97245.66;5015298;28;20058;-64
2021/09/28 11:26:49;;;;;;;9.80;8.05;;;;;;;22.52;48.32;96996.03;5004197;28;20432;-63
2021/09/28 11:29:21;;;;;;;10.10;8.77;;;;;;;24.45;48.02;97247.91;5003782;28;20525;-65
2021/09/28 11:31:48;;;;;;;9.73;8.75;;;;;;;22.67;51.38;97107.34;4989148;28;20060;-61
2021/09/28 11:34:30;;;;;;;10.50;9.07;;;;;;;22.85;52.45;97164.09;4990744;28;20179;-62